createdAt,value
2023-09-21T00:00:14.309Z,99864.03
2023-09-21T00:02:49.696Z,99852.03
2023-09-21T00:05:23.582Z,99864.25
2023-09-21T00:07:50.973Z,99837.50
2023-09-21T00:10:18.471Z,99868.09
2023-09-21T00:12:44.254Z,99841.03
2023-09-21T00:15:13.179Z,99834.59
2023-09-21T00:17:39.613Z,99847.03
2023-09-21T00:20:22.304Z,99837.19
2023-09-21T00:22:48.132Z,99847.56
2023-09-21T00:25:16.397Z,99862.00
2023-09-21T00:27:42.289Z,99851.09
2023-09-21T00:30:08.365Z,99856.13
2023-09-21T00:32:41.536Z,99851.75
2023-09-21T00:35:11.904Z,99852.72
2023-09-21T00:37:38.908Z,99833.31
2023-09-21T00:40:18.565Z,99840.03
2023-09-21T00:42:45.387Z,99843.81
2023-09-21T00:45:13.083Z,99818.66
2023-09-21T00:47:43.087Z,99822.28
2023-09-21T00:50:11.367Z,99829.34
2023-09-21T00:52:49.845Z,99849.03
2023-09-21T00:55:18.259Z,99813.50
2023-09-21T00:57:46.108Z,99836.19
2023-09-21T01:00:14.542Z,99827.63
2023-09-21T01:02:43.256Z,99832.56
2023-09-21T01:05:18.414Z,99823.78
2023-09-21T01:07:48.642Z,99829.34
2023-09-21T01:10:16.298Z,99808.72
2023-09-21T01:12:48.962Z,99820.78
2023-09-21T01:15:15.719Z,99829.34
2023-09-21T01:17:42.456Z,99800.34
2023-09-21T01:20:30.259Z,99822.47
2023-09-21T01:23:05.153Z,99812.44
2023-09-21T01:25:30.938Z,99803.66
2023-09-21T01:27:56.756Z,99814.91
2023-09-21T01:30:23.410Z,99797.69
2023-09-21T01:32:49.394Z,99796.06
2023-09-21T01:35:16.587Z,99793.59
2023-09-21T01:37:42.553Z,99799.59
2023-09-21T01:40:15.672Z,99785.59
2023-09-21T01:42:41.478Z,99801.97
2023-09-21T01:45:14.258Z,99808.91
2023-09-21T01:47:40.351Z,99785.91
2023-09-21T01:50:10.392Z,99803.03
2023-09-21T01:52:36.889Z,99781.22
2023-09-21T01:55:05.859Z,99813.19
2023-09-21T01:57:32.806Z,99765.72
2023-09-21T01:59:58.670Z,99799.84
2023-09-21T02:02:24.645Z,99780.56
2023-09-21T02:04:50.536Z,99795.09
2023-09-21T02:07:16.669Z,99790.94
2023-09-21T02:09:42.562Z,99767.53
2023-09-21T02:12:08.438Z,99781.44
2023-09-21T02:14:34.327Z,99753.81
2023-09-21T02:17:00.142Z,99747.72
2023-09-21T02:19:26.553Z,99774.38
2023-09-21T02:21:52.664Z,99770.28
2023-09-21T02:24:18.589Z,99764.31
2023-09-21T02:26:44.471Z,99778.22
2023-09-21T02:29:13.120Z,99767.19
2023-09-21T02:31:39.079Z,99788.69
2023-09-21T02:34:04.950Z,99724.81
2023-09-21T02:36:32.016Z,99778.41
2023-09-21T02:38:57.873Z,99783.00
2023-09-21T02:41:23.777Z,99777.44
2023-09-21T02:43:49.815Z,99742.91
2023-09-21T02:46:15.690Z,99742.91
2023-09-21T02:48:41.940Z,99762.28
2023-09-21T02:51:08.154Z,99758.31
2023-09-21T02:53:34.019Z,99761.94
2023-09-21T02:56:00.396Z,99744.63
2023-09-21T02:58:26.716Z,99737.78
2023-09-21T03:00:52.749Z,99747.72
2023-09-21T03:03:21.316Z,99744.00
2023-09-21T03:05:48.215Z,99748.06
2023-09-21T03:08:18.041Z,99724.66
2023-09-21T03:10:45.972Z,99732.88
2023-09-21T03:13:16.170Z,99752.78
2023-09-21T03:15:44.325Z,99740.91
2023-09-21T03:18:10.273Z,99738.22
2023-09-21T03:20:37.343Z,99754.72
2023-09-21T03:23:09.814Z,99755.13
2023-09-21T03:25:42.994Z,99733.31
2023-09-21T03:28:13.666Z,99736.53
2023-09-21T03:30:47.955Z,99723.91
2023-09-21T03:33:16.434Z,99745.91
2023-09-21T03:35:43.249Z,99743.97
2023-09-21T03:38:18.889Z,99720.88
2023-09-21T03:40:45.459Z,99744.25
2023-09-21T03:43:15.204Z,99736.00
2023-09-21T03:45:43.008Z,99726.78
2023-09-21T03:48:10.388Z,99712.44
2023-09-21T03:50:37.390Z,99689.75
2023-09-21T03:53:09.174Z,99694.09
2023-09-21T03:55:36.019Z,99711.53
2023-09-21T03:58:02.871Z,99710.66
2023-09-21T04:00:34.553Z,99698.88
2023-09-21T04:03:02.710Z,99702.19
2023-09-21T04:05:34.498Z,99710.84
2023-09-21T04:08:00.571Z,99686.25
2023-09-21T04:10:27.050Z,99711.41
2023-09-21T04:12:55.880Z,99700.19
2023-09-21T04:15:26.460Z,99687.03
2023-09-21T04:17:52.773Z,99695.56
2023-09-21T04:20:19.523Z,99698.31
2023-09-21T04:22:48.143Z,99708.34
2023-09-21T04:25:14.870Z,99687.50
2023-09-21T04:27:42.594Z,99705.81
2023-09-21T04:30:10.218Z,99673.00
2023-09-21T04:32:38.346Z,99694.22
2023-09-21T04:35:05.137Z,99709.50
2023-09-21T04:37:31.765Z,99709.38
2023-09-21T04:39:59.084Z,99693.66
2023-09-21T04:42:24.980Z,99716.69
2023-09-21T04:44:50.871Z,99701.34
2023-09-21T04:47:16.767Z,99705.53
2023-09-21T04:49:42.603Z,99713.91
2023-09-21T04:52:08.464Z,99694.28
2023-09-21T04:54:34.322Z,99707.56
2023-09-21T04:57:00.212Z,99717.84
2023-09-21T04:59:26.047Z,99712.59
2023-09-21T05:01:51.918Z,99700.28
2023-09-21T05:04:18.279Z,99702.59
2023-09-21T05:06:44.199Z,99702.00
2023-09-21T05:09:10.874Z,99705.41
2023-09-21T05:11:39.306Z,99705.19
2023-09-21T05:14:06.004Z,99692.25
2023-09-21T05:16:32.758Z,99697.25
2023-09-21T05:18:58.866Z,99723.69
2023-09-21T05:21:24.830Z,99689.59
2023-09-21T05:23:50.652Z,99704.81
2023-09-21T05:26:16.516Z,99707.72
2023-09-21T05:28:43.794Z,99715.19
2023-09-21T05:31:10.289Z,99709.09
2023-09-21T05:33:36.921Z,99720.19
2023-09-21T05:36:05.467Z,99683.84
2023-09-21T05:38:34.533Z,99723.94
2023-09-21T05:41:03.499Z,99715.66
2023-09-21T05:43:29.704Z,99704.81
2023-09-21T05:45:55.986Z,99718.34
2023-09-21T05:48:22.002Z,99690.19
2023-09-21T05:50:48.088Z,99693.84
2023-09-21T05:53:13.902Z,99707.84
2023-09-21T05:55:44.204Z,99707.63
2023-09-21T05:58:10.098Z,99667.50
2023-09-21T06:00:36.273Z,99690.41
2023-09-21T06:03:02.187Z,99681.78
2023-09-21T06:05:30.244Z,99700.69
2023-09-21T06:07:58.547Z,99712.41
2023-09-21T06:10:26.072Z,99701.44
2023-09-21T06:12:52.352Z,99702.66
2023-09-21T06:15:18.858Z,99702.28
2023-09-21T06:17:46.674Z,99708.75
2023-09-21T06:20:13.312Z,99710.22
2023-09-21T06:22:39.118Z,99711.94
2023-09-21T06:25:08.110Z,99700.47
2023-09-21T06:27:34.124Z,99708.59
2023-09-21T06:29:59.998Z,99706.56
2023-09-21T06:32:26.366Z,99713.34
2023-09-21T06:34:52.438Z,99665.69
2023-09-21T06:37:21.810Z,99697.00
2023-09-21T06:39:47.666Z,99691.75
2023-09-21T06:42:15.803Z,99689.94
2023-09-21T06:44:42.556Z,99643.66
2023-09-21T06:47:08.522Z,99684.81
2023-09-21T06:49:36.218Z,99686.97
2023-09-21T06:52:03.839Z,99665.13
2023-09-21T06:54:29.885Z,99691.91
2023-09-21T06:57:03.992Z,99678.94
2023-09-21T06:59:31.560Z,99687.28
2023-09-21T07:01:57.494Z,99677.38
2023-09-21T07:04:23.580Z,99686.69
2023-09-21T07:06:51.210Z,99678.13
2023-09-21T07:09:17.136Z,99674.50
2023-09-21T07:11:43.418Z,99685.34
2023-09-21T07:14:09.275Z,99681.91
2023-09-21T07:16:35.175Z,99669.53
2023-09-21T07:19:01.053Z,99663.44
2023-09-21T07:21:26.970Z,99672.88
2023-09-21T07:23:52.885Z,99679.38
2023-09-21T07:26:19.149Z,99678.84
2023-09-21T07:28:46.027Z,99651.50
2023-09-21T07:31:12.349Z,99676.94
2023-09-21T07:33:38.210Z,99675.81
2023-09-21T07:36:04.921Z,99686.75
2023-09-21T07:38:30.744Z,99664.13
2023-09-21T07:40:57.252Z,99680.88
2023-09-21T07:43:23.262Z,99669.81
2023-09-21T07:45:54.002Z,99666.69
2023-09-21T07:48:20.940Z,99677.91
2023-09-21T07:50:47.145Z,99679.75
2023-09-21T07:53:13.074Z,99682.56
2023-09-21T07:55:38.961Z,99682.56
2023-09-21T07:58:04.964Z,99691.91
2023-09-21T08:00:30.952Z,99686.75
2023-09-21T08:02:56.992Z,99692.47
2023-09-21T08:05:23.164Z,99685.94
2023-09-21T08:07:52.358Z,99697.28
2023-09-21T08:10:18.898Z,99697.28
2023-09-21T08:12:45.437Z,99689.06
2023-09-21T08:15:11.555Z,99704.97
2023-09-21T08:17:38.517Z,99685.25
2023-09-21T08:20:06.449Z,99677.44
2023-09-21T08:22:33.169Z,99718.38
2023-09-21T08:24:59.093Z,99727.44
2023-09-21T08:27:36.266Z,99749.22
2023-09-21T08:30:06.692Z,99752.63
2023-09-21T08:32:33.508Z,99708.31
2023-09-21T08:34:59.487Z,99741.66
2023-09-21T08:37:25.416Z,99739.56
2023-09-21T08:39:51.313Z,99720.25
2023-09-21T08:42:17.435Z,99718.22
2023-09-21T08:44:44.283Z,99682.16
2023-09-21T08:47:31.515Z,99707.47
2023-09-21T08:50:03.356Z,99697.84
2023-09-21T08:52:33.539Z,99692.56
2023-09-21T08:54:59.433Z,99690.84
2023-09-21T08:57:25.651Z,99681.34
2023-09-21T08:59:55.582Z,99679.44
2023-09-21T09:02:24.304Z,99684.53
2023-09-21T09:04:51.422Z,99687.22
2023-09-21T09:07:18.701Z,99693.31
2023-09-21T09:09:46.627Z,99689.72
2023-09-21T09:12:25.565Z,99686.78
2023-09-21T09:14:53.317Z,99694.25
2023-09-21T09:17:19.393Z,99694.97
2023-09-21T09:19:48.484Z,99693.28
2023-09-21T09:22:17.456Z,99689.91
2023-09-21T09:24:49.700Z,99663.81
2023-09-21T09:27:16.382Z,99681.34
2023-09-21T09:29:52.466Z,99672.28
2023-09-21T09:32:19.285Z,99672.75
2023-09-21T09:34:47.013Z,99679.84
2023-09-21T09:37:16.182Z,99672.47
2023-09-21T09:39:43.720Z,99665.94
2023-09-21T09:42:13.414Z,99662.56
2023-09-21T09:44:47.335Z,99665.09
2023-09-21T09:47:16.759Z,99661.16
2023-09-21T09:49:44.879Z,99660.75
2023-09-21T09:52:14.262Z,99645.84
2023-09-21T09:54:40.894Z,99662.78
2023-09-21T09:57:14.347Z,99667.59
2023-09-21T09:59:45.115Z,99664.38
2023-09-21T10:02:14.983Z,99657.03
2023-09-21T10:04:42.258Z,99627.50
2023-09-21T10:07:09.312Z,99657.56
2023-09-21T10:09:36.362Z,99652.44
2023-09-21T10:12:05.555Z,99646.81
2023-09-21T10:14:37.261Z,99640.31
2023-09-21T10:17:05.282Z,99642.63
2023-09-21T10:19:37.111Z,99643.75
2023-09-21T10:22:26.011Z,99627.91
2023-09-21T10:24:55.041Z,99626.34
2023-09-21T10:27:24.804Z,99619.47
2023-09-21T10:30:02.689Z,99602.31
2023-09-21T10:32:44.562Z,99612.81
2023-09-21T10:35:14.950Z,99616.63
2023-09-21T10:37:40.969Z,99596.78
2023-09-21T10:40:10.456Z,99610.09
2023-09-21T10:42:37.462Z,99602.16
2023-09-21T10:45:10.770Z,99603.03
2023-09-21T10:47:36.705Z,99600.16
2023-09-21T10:50:07.390Z,99593.22
2023-09-21T10:52:35.610Z,99582.81
2023-09-21T10:55:01.689Z,99576.00
2023-09-21T10:57:29.701Z,99584.78
2023-09-21T11:00:11.459Z,99575.00
2023-09-21T11:02:41.471Z,99557.56
2023-09-21T11:05:08.155Z,99567.47
2023-09-21T11:07:34.575Z,99561.53
2023-09-21T11:10:01.429Z,99554.75
2023-09-21T11:12:27.311Z,99552.34
2023-09-21T11:14:53.223Z,99542.78
2023-09-21T11:17:19.360Z,99546.47
2023-09-21T11:19:46.609Z,99555.25
2023-09-21T11:22:13.481Z,99548.13
2023-09-21T11:24:42.604Z,99530.50
2023-09-21T11:27:12.426Z,99519.50
2023-09-21T11:29:40.507Z,99533.84
2023-09-21T11:32:12.795Z,99500.75
2023-09-21T11:34:40.130Z,99523.31
2023-09-21T11:37:09.122Z,99503.94
2023-09-21T11:39:48.836Z,99507.13
2023-09-21T11:42:19.997Z,99504.59
2023-09-21T11:44:52.953Z,99482.31
2023-09-21T11:47:22.533Z,99495.41
2023-09-21T11:49:53.115Z,99485.47
2023-09-21T11:52:19.742Z,99450.31
2023-09-21T11:54:45.719Z,99488.16
2023-09-21T11:57:11.722Z,99468.41
2023-09-21T11:59:42.628Z,99485.13
2023-09-21T12:02:10.586Z,99483.97
2023-09-21T12:04:38.265Z,99473.56
2023-09-21T12:07:05.388Z,99451.94
2023-09-21T12:09:31.413Z,99456.38
2023-09-21T12:11:58.948Z,99467.66
2023-09-21T12:14:24.815Z,99459.91
2023-09-21T12:16:54.209Z,99455.28
2023-09-21T12:19:20.597Z,99452.91
2023-09-21T12:21:47.382Z,99448.09
2023-09-21T12:24:13.376Z,99426.94
2023-09-21T12:26:42.188Z,99430.34
2023-09-21T12:29:09.819Z,99397.69
2023-09-21T12:31:56.571Z,99422.94
2023-09-21T12:34:23.250Z,99402.16
2023-09-21T12:36:49.951Z,99425.94
2023-09-21T12:39:16.597Z,99430.19
2023-09-21T12:41:43.950Z,99423.75
2023-09-21T12:44:13.381Z,99421.06
2023-09-21T12:46:39.290Z,99425.13
2023-09-21T12:49:05.203Z,99407.22
2023-09-21T12:51:34.989Z,99405.06
2023-09-21T12:54:02.378Z,99406.91
2023-09-21T12:56:28.252Z,99404.72
2023-09-21T12:58:56.315Z,99402.03
2023-09-21T13:01:23.843Z,99380.22
2023-09-21T13:03:50.760Z,99379.53
2023-09-21T13:06:17.157Z,99381.91
2023-09-21T13:08:43.427Z,99363.97
2023-09-21T13:11:09.400Z,99362.94
2023-09-21T13:13:38.812Z,99386.19
2023-09-21T13:16:08.870Z,99384.97
2023-09-21T13:18:41.014Z,99383.28
2023-09-21T13:21:08.545Z,99373.13
2023-09-21T13:23:36.136Z,99348.75
2023-09-21T13:26:02.324Z,99347.72
2023-09-21T13:28:28.159Z,99358.53
2023-09-21T13:30:54.151Z,99325.41
2023-09-21T13:33:20.216Z,99340.09
2023-09-21T13:35:46.123Z,99326.03
2023-09-21T13:38:12.978Z,99325.69
2023-09-21T13:40:39.341Z,99347.00
2023-09-21T13:43:05.920Z,99332.44
2023-09-21T13:45:32.812Z,99333.41
2023-09-21T13:47:58.765Z,99320.72
2023-09-21T13:50:24.729Z,99324.28
2023-09-21T13:52:50.597Z,99333.41
2023-09-21T13:55:19.465Z,99306.81
2023-09-21T13:57:47.453Z,99323.22
2023-09-21T14:00:13.576Z,99323.72
2023-09-21T14:02:40.537Z,99303.28
2023-09-21T14:05:07.233Z,99316.78
2023-09-21T14:07:33.386Z,99308.66
2023-09-21T14:09:59.182Z,99302.19
2023-09-21T14:12:26.025Z,99317.78
2023-09-21T14:14:51.906Z,99296.94
2023-09-21T14:17:17.948Z,99301.84
2023-09-21T14:19:43.766Z,99284.59
2023-09-21T14:22:09.782Z,99292.09
2023-09-21T14:24:35.702Z,99293.75
2023-09-21T14:27:01.656Z,99280.06
2023-09-21T14:29:28.405Z,99297.28
2023-09-21T14:31:54.475Z,99294.88
2023-09-21T14:34:20.304Z,99291.16
2023-09-21T14:36:46.328Z,99268.31
2023-09-21T14:39:12.175Z,99265.94
2023-09-21T14:41:38.013Z,99292.28
2023-09-21T14:44:04.034Z,99279.81
2023-09-21T14:46:29.913Z,99282.84
2023-09-21T14:48:55.785Z,99275.34
2023-09-21T14:51:21.725Z,99264.56
2023-09-21T14:53:47.627Z,99265.59
2023-09-21T14:56:13.462Z,99266.56
2023-09-21T14:58:39.248Z,99261.78
2023-09-21T15:01:05.207Z,99269.56
2023-09-21T15:03:31.593Z,99262.47
2023-09-21T15:05:57.605Z,99241.72
2023-09-21T15:08:24.742Z,99259.47
2023-09-21T15:10:54.112Z,99254.03
2023-09-21T15:13:21.122Z,99235.94
2023-09-21T15:15:47.340Z,99243.53
2023-09-21T15:18:15.819Z,99222.91
2023-09-21T15:20:42.734Z,99249.28
2023-09-21T15:23:08.552Z,99225.78
2023-09-21T15:25:34.387Z,99231.34
2023-09-21T15:28:00.230Z,99231.19
2023-09-21T15:30:26.097Z,99225.09
2023-09-21T15:32:52.071Z,99187.06
2023-09-21T15:35:17.912Z,99192.13
2023-09-21T15:37:43.731Z,99216.81
2023-09-21T15:40:09.579Z,99216.81
2023-09-21T15:42:35.452Z,99204.84
2023-09-21T15:45:01.493Z,99202.63
2023-09-21T15:47:27.779Z,99205.38
2023-09-21T15:49:53.676Z,99180.03
2023-09-21T15:52:19.710Z,99199.31
2023-09-21T15:54:45.621Z,99213.19
2023-09-21T15:57:11.610Z,99198.34
2023-09-21T15:59:37.451Z,99195.84
2023-09-21T16:02:04.306Z,99197.72
2023-09-21T16:04:30.448Z,99198.72
2023-09-21T16:06:56.437Z,99213.78
2023-09-21T16:09:22.303Z,99203.16
2023-09-21T16:11:48.271Z,99184.91
2023-09-21T16:14:14.090Z,99207.53
2023-09-21T16:16:39.900Z,99199.47
2023-09-21T16:19:06.055Z,99211.50
2023-09-21T16:21:34.987Z,99202.19
2023-09-21T16:24:01.370Z,99189.69
2023-09-21T16:26:29.069Z,99187.31
2023-09-21T16:28:54.944Z,99194.94
2023-09-21T16:31:20.810Z,99203.91
2023-09-21T16:33:47.837Z,99203.38
2023-09-21T16:36:14.156Z,99204.56
2023-09-21T16:38:40.018Z,99194.47
2023-09-21T16:41:07.189Z,99189.91
2023-09-21T16:43:33.034Z,99194.97
2023-09-21T16:45:59.184Z,99188.19
2023-09-21T16:48:25.199Z,99190.75
2023-09-21T16:50:52.290Z,99188.56
2023-09-21T16:53:18.158Z,99186.53
2023-09-21T16:55:44.000Z,99192.47
2023-09-21T16:58:09.888Z,99185.34
2023-09-21T17:00:36.008Z,99179.25
2023-09-21T17:03:03.005Z,99173.19
2023-09-21T17:05:29.125Z,99180.63
2023-09-21T17:07:55.981Z,99196.50
2023-09-21T17:10:23.057Z,99199.41
2023-09-21T17:12:50.385Z,99182.16
2023-09-21T17:15:17.008Z,99197.22
2023-09-21T17:17:44.215Z,99195.84
2023-09-21T17:20:11.134Z,99188.38
2023-09-21T17:22:38.324Z,99207.69
2023-09-21T17:25:05.615Z,99227.94
2023-09-21T17:27:32.267Z,99226.91
2023-09-21T17:29:59.573Z,99222.53
2023-09-21T17:32:25.734Z,99234.69
2023-09-21T17:34:51.729Z,99238.25
2023-09-21T17:37:18.469Z,99231.97
2023-09-21T17:39:44.729Z,99260.69
2023-09-21T17:42:10.648Z,99243.59
2023-09-21T17:44:36.522Z,99236.78
2023-09-21T17:47:05.675Z,99248.13
2023-09-21T17:49:34.324Z,99248.09
2023-09-21T17:52:01.848Z,99244.63
2023-09-21T17:54:28.328Z,99225.00
2023-09-21T17:56:54.203Z,99236.78
2023-09-21T17:59:20.136Z,99225.28
2023-09-21T18:01:46.205Z,99222.66
2023-09-21T18:04:12.582Z,99242.75
2023-09-21T18:06:38.700Z,99229.16
2023-09-21T18:09:08.399Z,99237.75
2023-09-21T18:11:38.788Z,99240.66
2023-09-21T18:14:05.335Z,99252.69
2023-09-21T18:16:31.608Z,99255.53
2023-09-21T18:18:57.733Z,99254.16
2023-09-21T18:21:24.270Z,99236.78
2023-09-21T18:23:51.233Z,99246.03
2023-09-21T18:26:17.862Z,99237.38
2023-09-21T18:28:44.175Z,99259.72
2023-09-21T18:31:14.323Z,99258.03
2023-09-21T18:33:41.336Z,99251.03
2023-09-21T18:36:07.621Z,99258.34
2023-09-21T18:38:34.956Z,99256.25
2023-09-21T18:41:01.968Z,99228.13
2023-09-21T18:43:29.626Z,99229.97
2023-09-21T18:45:58.548Z,99235.53
2023-09-21T18:48:24.974Z,99223.97
2023-09-21T18:50:51.609Z,99237.66
2023-09-21T18:53:20.300Z,99252.84
2023-09-21T18:55:49.036Z,99243.50
2023-09-21T18:58:14.878Z,99221.50
2023-09-21T19:00:40.848Z,99242.16
2023-09-21T19:03:07.295Z,99231.88
2023-09-21T19:05:33.157Z,99225.25
2023-09-21T19:07:59.036Z,99229.81
2023-09-21T19:10:24.927Z,99229.56
2023-09-21T19:12:51.122Z,99233.41
2023-09-21T19:15:18.215Z,99237.56
2023-09-21T19:17:45.365Z,99242.41
2023-09-21T19:20:12.331Z,99257.41
2023-09-21T19:22:39.838Z,99237.13
2023-09-21T19:25:06.713Z,99257.88
2023-09-21T19:27:33.037Z,99252.97
2023-09-21T19:29:59.279Z,99260.66
2023-09-21T19:32:26.180Z,99274.66
2023-09-21T19:34:52.827Z,99275.66
2023-09-21T19:37:18.659Z,99245.72
2023-09-21T19:39:46.195Z,99279.97
2023-09-21T19:42:13.388Z,99270.94
2023-09-21T19:44:39.373Z,99266.00
2023-09-21T19:47:05.781Z,99253.97
2023-09-21T19:49:31.913Z,99272.94
2023-09-21T19:51:57.900Z,99262.31
2023-09-21T19:54:24.100Z,99276.19
2023-09-21T19:56:50.809Z,99282.78
2023-09-21T19:59:17.918Z,99249.44
2023-09-21T20:01:44.130Z,99278.13
2023-09-21T20:04:10.092Z,99291.50
2023-09-21T20:06:36.171Z,99293.50
2023-09-21T20:09:03.644Z,99294.34
2023-09-21T20:11:29.446Z,99298.59
2023-09-21T20:13:57.397Z,99301.81
2023-09-21T20:16:24.216Z,99300.53
2023-09-21T20:18:50.161Z,99294.56
2023-09-21T20:21:16.127Z,99284.09
2023-09-21T20:23:42.209Z,99290.25
2023-09-21T20:26:08.155Z,99277.50
2023-09-21T20:28:34.166Z,99276.41
2023-09-21T20:31:00.542Z,99267.94
2023-09-21T20:33:27.305Z,99279.19
2023-09-21T20:35:56.413Z,99276.50
2023-09-21T20:38:22.327Z,99272.09
2023-09-21T20:40:48.344Z,99268.56
2023-09-21T20:43:14.265Z,99263.56
2023-09-21T20:45:40.235Z,99200.25
2023-09-21T20:48:08.059Z,99229.22
2023-09-21T20:50:33.986Z,99253.94
2023-09-21T20:52:59.903Z,99251.81
2023-09-21T20:55:25.742Z,99231.16
2023-09-21T20:57:51.552Z,99254.75
2023-09-21T21:00:18.474Z,99252.34
2023-09-21T21:02:45.420Z,99241.28
2023-09-21T21:05:12.359Z,99235.19
2023-09-21T21:07:38.872Z,99238.59
2023-09-21T21:10:05.622Z,99233.09
2023-09-21T21:12:32.369Z,99235.19
2023-09-21T21:15:00.112Z,99230.69
2023-09-21T21:17:26.503Z,99227.31
2023-09-21T21:19:52.381Z,99236.19
2023-09-21T21:22:21.145Z,99237.19
2023-09-21T21:24:46.943Z,99235.78
2023-09-21T21:27:12.930Z,99221.63
2023-09-21T21:29:38.822Z,99204.41
2023-09-21T21:32:04.665Z,99212.28
2023-09-21T21:34:30.520Z,99231.81
2023-09-21T21:36:59.185Z,99231.81
2023-09-21T21:39:25.074Z,99247.66
2023-09-21T21:41:50.911Z,99242.88
2023-09-21T21:44:16.733Z,99186.66
2023-09-21T21:46:42.891Z,99241.19
2023-09-21T21:49:08.711Z,99227.59
2023-09-21T21:51:34.675Z,99225.94
2023-09-21T21:54:00.585Z,99235.69
2023-09-21T21:56:26.400Z,99221.16
2023-09-21T21:58:52.443Z,99215.50
2023-09-21T22:01:18.335Z,99231.22
2023-09-21T22:03:44.900Z,99224.88
2023-09-21T22:06:12.641Z,99233.28
2023-09-21T22:08:39.004Z,99247.03
2023-09-21T22:11:06.222Z,99205.16
2023-09-21T22:13:38.313Z,99232.34
2023-09-21T22:16:05.357Z,99224.19
2023-09-21T22:18:31.824Z,99208.50
2023-09-21T22:20:58.295Z,99231.88
2023-09-21T22:23:25.200Z,99229.94
2023-09-21T22:25:51.221Z,99231.66
2023-09-21T22:28:17.083Z,99225.88
2023-09-21T22:30:47.399Z,99227.84
2023-09-21T22:33:13.387Z,99221.22
2023-09-21T22:35:39.790Z,99234.22
2023-09-21T22:38:14.693Z,99232.81
2023-09-21T22:40:42.583Z,99229.72
2023-09-21T22:43:09.949Z,99211.03
2023-09-21T22:45:39.942Z,99220.22
2023-09-21T22:48:07.062Z,99212.19
2023-09-21T22:50:36.171Z,99233.22
2023-09-21T22:53:02.210Z,99217.69
2023-09-21T22:55:29.825Z,99242.88
2023-09-21T22:57:55.758Z,99233.66
2023-09-21T23:00:22.721Z,99223.72
2023-09-21T23:02:49.168Z,99237.34
2023-09-21T23:05:15.636Z,99201.66
2023-09-21T23:07:43.354Z,99237.84
2023-09-21T23:10:13.601Z,99216.91
2023-09-21T23:12:43.628Z,99220.41
2023-09-21T23:15:12.295Z,99242.75
2023-09-21T23:17:38.481Z,99251.53
2023-09-21T23:20:14.014Z,99223.66
2023-09-21T23:22:43.801Z,99240.16
2023-09-21T23:25:10.204Z,99229.56
2023-09-21T23:27:38.274Z,99247.94
2023-09-21T23:30:06.335Z,99250.31
2023-09-21T23:32:32.563Z,99237.13
2023-09-21T23:34:58.553Z,99238.13
2023-09-21T23:37:24.465Z,99243.34
2023-09-21T23:39:51.322Z,99227.59
2023-09-21T23:42:18.304Z,99226.31
2023-09-21T23:44:45.875Z,99254.88
2023-09-21T23:47:12.334Z,99252.56
2023-09-21T23:49:38.932Z,99246.66
2023-09-21T23:52:05.797Z,99243.78
2023-09-21T23:54:33.505Z,99236.66
2023-09-21T23:57:00.978Z,99237.09
2023-09-21T23:59:28.638Z,99239.91
